Joliett, Pennsylvania
Current Conditions -  °F | °C
As of 7:28 AM on Thursday 23 Oct 2014 (Local Time) from KMUI Reporting Station
Overcast Overcast  
Wind Chill: 52°   Ceiling: 2800
Heat Index: 52°   Visibility: 10mi
Dew Point: 45°   Wind: 6mph
Humidity: 76%   Direction: NA
Pressure: 29.88"   Gusts: NA
Location:  40.6079°N, 76.4334°W
Report Text: KMUI 231128Z AUTO VRB05KT 10SM BKN028 OVC034 11/07 A2988 RMK AO2 CIG 028V033 $
Loading
Personal Weather Stations






























Interactive Weather Map
Tropical Storm Tracking
New forecast layout! Learn more

10-Day Weather Forecast

Advertisements
Track Severe Weather on mobile